createdAt,value
2023-03-05T00:00:25.448Z,16.90
2023-03-05T00:02:51.541Z,16.20
2023-03-05T00:05:17.761Z,15.40
2023-03-05T00:07:43.783Z,16.20
2023-03-05T00:10:10.227Z,16.50
2023-03-05T00:12:36.630Z,14.80
2023-03-05T00:15:03.292Z,15.30
2023-03-05T00:17:29.642Z,15.90
2023-03-05T00:19:57.964Z,15.40
2023-03-05T00:22:24.028Z,15.50
2023-03-05T00:24:51.197Z,16.50
2023-03-05T00:27:17.468Z,15.30
2023-03-05T00:29:43.598Z,16.70
2023-03-05T00:32:09.678Z,16.60
2023-03-05T00:34:36.825Z,15.10
2023-03-05T00:37:03.195Z,15.60
2023-03-05T00:39:29.245Z,15.20
2023-03-05T00:41:56.435Z,15.40
2023-03-05T00:44:23.503Z,15.00
2023-03-05T00:46:49.752Z,14.90
2023-03-05T00:49:16.362Z,14.00
2023-03-05T00:51:42.597Z,14.70
2023-03-05T00:54:08.689Z,15.80
2023-03-05T00:56:34.823Z,15.30
2023-03-05T00:59:01.031Z,14.70
2023-03-05T01:01:28.503Z,14.40
2023-03-05T01:03:56.876Z,14.70
2023-03-05T01:06:23.239Z,15.60
2023-03-05T01:08:49.347Z,13.80
2023-03-05T01:11:15.589Z,15.00
2023-03-05T01:13:41.772Z,13.40
2023-03-05T01:16:08.227Z,14.60
2023-03-05T01:18:34.327Z,13.70
2023-03-05T01:21:00.503Z,14.00
2023-03-05T01:23:26.728Z,14.60
2023-03-05T01:25:57.617Z,13.60
2023-03-05T01:28:24.392Z,14.80
2023-03-05T01:30:50.739Z,15.00
2023-03-05T01:33:17.642Z,15.20
2023-03-05T01:35:49.603Z,15.30
2023-03-05T01:38:16.883Z,17.40
2023-03-05T01:40:43.688Z,15.20
2023-03-05T01:43:12.822Z,14.80
2023-03-05T01:46:16.081Z,14.00
2023-03-05T01:48:45.307Z,14.90
2023-03-05T01:51:12.340Z,14.30
2023-03-05T01:53:39.490Z,15.50
2023-03-05T01:56:06.317Z,12.70
2023-03-05T01:58:32.819Z,15.10
2023-03-05T02:00:59.289Z,13.40
2023-03-05T02:03:25.956Z,14.30
2023-03-05T02:05:53.017Z,13.40
2023-03-05T02:08:21.478Z,13.50
2023-03-05T02:10:50.496Z,15.20
2023-03-05T02:13:23.075Z,14.00
2023-03-05T02:15:50.011Z,14.40
2023-03-05T02:18:17.756Z,14.40
2023-03-05T02:20:50.985Z,13.90
2023-03-05T02:23:18.693Z,15.60
2023-03-05T02:25:45.070Z,13.10
2023-03-05T02:28:25.760Z,13.60
2023-03-05T02:30:52.065Z,12.80
2023-03-05T02:33:19.493Z,14.20
2023-03-05T02:35:46.843Z,14.60
2023-03-05T02:38:15.383Z,15.20
2023-03-05T02:40:42.031Z,13.90
2023-03-05T02:43:09.023Z,14.90
2023-03-05T02:45:36.213Z,15.40
2023-03-05T02:48:02.567Z,14.80
2023-03-05T02:50:29.172Z,16.50
2023-03-05T02:52:55.322Z,15.80
2023-03-05T02:55:21.933Z,16.70
2023-03-05T02:57:48.153Z,17.80
2023-03-05T03:00:14.931Z,18.30
2023-03-05T03:02:41.229Z,18.20
2023-03-05T03:05:08.178Z,18.60
2023-03-05T03:07:35.958Z,19.90
2023-03-05T03:10:03.508Z,18.00
2023-03-05T03:12:29.561Z,18.50
2023-03-05T03:14:55.801Z,18.00
2023-03-05T03:17:21.982Z,17.10
2023-03-05T03:19:48.115Z,16.60
2023-03-05T03:22:15.848Z,17.40
2023-03-05T03:24:42.995Z,16.90
2023-03-05T03:27:09.905Z,20.50
2023-03-05T03:29:36.288Z,18.20
2023-03-05T03:32:03.020Z,17.90
2023-03-05T03:34:29.162Z,18.90
2023-03-05T03:36:55.428Z,17.90
2023-03-05T03:39:22.015Z,18.50
2023-03-05T03:41:51.276Z,18.20
2023-03-05T03:44:18.928Z,19.60
2023-03-05T03:46:46.591Z,17.60
2023-03-05T03:49:21.990Z,18.50
2023-03-05T03:51:49.309Z,17.40
2023-03-05T03:54:16.358Z,17.90
2023-03-05T03:56:42.952Z,18.10
2023-03-05T03:59:09.596Z,16.50
2023-03-05T04:01:36.242Z,19.00
2023-03-05T04:04:03.267Z,20.60
2023-03-05T04:06:29.396Z,20.50
2023-03-05T04:08:55.807Z,18.20
2023-03-05T04:11:21.988Z,18.40
2023-03-05T04:13:48.802Z,19.10
2023-03-05T04:16:16.446Z,20.00
2023-03-05T04:18:43.095Z,20.00
2023-03-05T04:21:09.314Z,20.00
2023-03-05T04:23:35.698Z,19.60
2023-03-05T04:26:01.896Z,19.30
2023-03-05T04:28:27.928Z,20.70
2023-03-05T04:30:54.162Z,22.60
2023-03-05T04:33:20.414Z,19.00
2023-03-05T04:35:46.682Z,20.40
2023-03-05T04:38:13.086Z,19.90
2023-03-05T04:40:39.460Z,21.50
2023-03-05T04:43:05.765Z,20.80
2023-03-05T04:45:32.197Z,20.10
2023-03-05T04:47:58.660Z,20.90
2023-03-05T04:50:25.403Z,19.60
2023-03-05T04:52:51.572Z,19.40
2023-03-05T04:55:18.174Z,18.90
2023-03-05T04:57:44.715Z,21.10
2023-03-05T05:00:13.952Z,21.00
2023-03-05T05:02:50.743Z,19.30
2023-03-05T05:05:23.397Z,18.50
2023-03-05T05:07:49.648Z,19.60
2023-03-05T05:10:16.184Z,19.50
2023-03-05T05:12:42.613Z,19.30
2023-03-05T05:15:09.528Z,21.10
2023-03-05T05:17:35.713Z,22.00
2023-03-05T05:20:05.982Z,18.80
2023-03-05T05:22:32.234Z,18.90
2023-03-05T05:24:58.359Z,20.70
2023-03-05T05:27:24.632Z,21.20
2023-03-05T05:29:52.183Z,19.30
2023-03-05T05:32:20.602Z,20.80
2023-03-05T05:34:46.745Z,22.70
2023-03-05T05:37:12.824Z,17.50
2023-03-05T05:39:38.952Z,19.00
2023-03-05T05:42:05.580Z,18.00
2023-03-05T05:44:34.210Z,20.40
2023-03-05T05:47:00.956Z,18.90
2023-03-05T05:49:27.113Z,18.70
2023-03-05T05:51:53.182Z,19.30
2023-03-05T05:54:19.329Z,17.60
2023-03-05T05:56:45.456Z,17.90
2023-03-05T05:59:11.532Z,18.90
2023-03-05T06:01:37.662Z,17.50
2023-03-05T06:04:03.828Z,19.50
2023-03-05T06:06:30.277Z,18.10
2023-03-05T06:08:56.848Z,17.80
2023-03-05T06:11:23.400Z,17.90
2023-03-05T06:13:49.898Z,17.80
2023-03-05T06:16:20.050Z,16.40
2023-03-05T06:18:46.202Z,17.60
2023-03-05T06:21:14.995Z,19.00
2023-03-05T06:23:41.830Z,15.20
2023-03-05T06:26:10.327Z,17.20
2023-03-05T06:28:36.457Z,15.50
2023-03-05T06:31:05.477Z,18.10
2023-03-05T06:33:32.184Z,18.30
2023-03-05T06:35:58.862Z,16.70
2023-03-05T06:38:25.474Z,17.10
2023-03-05T06:40:51.919Z,16.30
2023-03-05T06:43:17.995Z,15.80
2023-03-05T06:45:44.162Z,15.40
2023-03-05T06:48:11.115Z,15.40
2023-03-05T06:50:37.312Z,15.70
2023-03-05T06:53:03.569Z,14.80
2023-03-05T06:55:29.743Z,14.80
2023-03-05T06:57:55.819Z,16.90
2023-03-05T07:00:22.282Z,16.70
2023-03-05T07:02:48.384Z,16.90
2023-03-05T07:05:14.539Z,16.40
2023-03-05T07:07:40.703Z,16.30
2023-03-05T07:10:07.765Z,14.60
2023-03-05T07:12:34.503Z,16.00
2023-03-05T07:15:00.720Z,17.50
2023-03-05T07:17:27.311Z,15.50
2023-03-05T07:19:53.575Z,17.90
2023-03-05T07:22:19.702Z,17.80
2023-03-05T07:24:45.825Z,15.00
2023-03-05T07:27:11.950Z,13.30
2023-03-05T07:29:38.092Z,16.60
2023-03-05T07:32:04.616Z,15.30
2023-03-05T07:34:30.818Z,14.70
2023-03-05T07:36:56.917Z,16.70
2023-03-05T07:39:23.053Z,15.50
2023-03-05T07:41:50.932Z,15.30
2023-03-05T07:44:17.293Z,15.50
2023-03-05T07:46:44.152Z,15.50
2023-03-05T07:49:10.240Z,18.50
2023-03-05T07:51:36.417Z,16.50
2023-03-05T07:54:03.232Z,16.20
2023-03-05T07:56:32.334Z,17.30
2023-03-05T07:58:59.012Z,15.40
2023-03-05T08:01:25.180Z,17.20
2023-03-05T08:03:51.259Z,16.30
2023-03-05T08:06:17.445Z,16.40
2023-03-05T08:08:43.859Z,17.10
2023-03-05T08:11:12.537Z,17.50
2023-03-05T08:13:39.399Z,17.50
2023-03-05T08:16:07.737Z,18.70
2023-03-05T08:18:34.398Z,17.10
2023-03-05T08:21:00.590Z,18.30
2023-03-05T08:23:29.902Z,17.20
2023-03-05T08:25:56.338Z,17.90
2023-03-05T08:28:23.270Z,18.00
2023-03-05T08:30:49.415Z,19.60
2023-03-05T08:33:17.032Z,17.90
2023-03-05T08:35:44.037Z,17.60
2023-03-05T08:38:10.668Z,17.30
2023-03-05T08:40:36.801Z,16.70
2023-03-05T08:43:05.211Z,18.00
2023-03-05T08:45:31.257Z,18.40
2023-03-05T08:47:57.655Z,18.10
2023-03-05T08:50:23.961Z,17.20
2023-03-05T08:52:50.236Z,18.60
2023-03-05T08:55:16.416Z,19.20
2023-03-05T08:57:42.723Z,20.40
2023-03-05T09:00:09.867Z,17.90
2023-03-05T09:02:36.651Z,18.20
2023-03-05T09:05:03.428Z,19.60
2023-03-05T09:07:29.500Z,22.90
2023-03-05T09:09:55.637Z,39.70
2023-03-05T09:12:21.839Z,24.60
2023-03-05T09:14:47.939Z,24.70
2023-03-05T09:17:14.174Z,27.30
2023-03-05T09:19:40.277Z,17.40
2023-03-05T09:22:06.357Z,20.40
2023-03-05T09:24:32.449Z,17.30
2023-03-05T09:26:59.892Z,16.50
2023-03-05T09:29:27.000Z,17.60
2023-03-05T09:31:53.649Z,16.40
2023-03-05T09:34:20.014Z,15.20
2023-03-05T09:36:46.262Z,15.90
2023-03-05T09:39:12.486Z,14.20
2023-03-05T09:42:00.179Z,14.40
2023-03-05T09:44:45.239Z,14.10
2023-03-05T09:47:34.491Z,14.00
2023-03-05T09:50:32.467Z,13.80
2023-03-05T09:53:16.738Z,15.50
2023-03-05T09:55:46.662Z,16.00
2023-03-05T09:58:17.883Z,13.90
2023-03-05T10:00:50.110Z,13.10
2023-03-05T10:06:05.232Z,14.10
2023-03-05T10:08:43.402Z,16.90
2023-03-05T10:11:23.857Z,14.30
2023-03-05T10:13:51.629Z,16.10
2023-03-05T10:16:30.780Z,15.00
2023-03-05T10:19:23.044Z,13.70
2023-03-05T10:22:20.715Z,16.30
2023-03-05T10:24:55.696Z,17.70
2023-03-05T10:30:27.466Z,11.40
2023-03-05T10:33:02.539Z,12.50
2023-03-05T10:35:36.340Z,12.60
2023-03-05T10:38:26.729Z,14.80
2023-03-05T10:40:55.140Z,11.80
2023-03-05T10:43:36.979Z,13.50
2023-03-05T10:46:29.117Z,14.50
2023-03-05T10:49:01.929Z,11.80
2023-03-05T10:51:43.545Z,12.30
2023-03-05T10:54:24.679Z,10.80
2023-03-05T10:57:02.232Z,9.70
2023-03-05T10:59:28.522Z,10.90
2023-03-05T11:02:04.557Z,11.50
2023-03-05T11:04:37.647Z,11.90
2023-03-05T11:07:15.837Z,10.90
2023-03-05T11:09:43.760Z,11.90
2023-03-05T11:12:20.816Z,12.00
2023-03-05T11:15:17.684Z,10.60
2023-03-05T11:17:48.375Z,11.20
2023-03-05T11:20:20.097Z,11.50
2023-03-05T11:23:01.164Z,12.10
2023-03-05T11:25:27.417Z,11.90
2023-03-05T11:27:58.990Z,10.70
2023-03-05T11:30:26.527Z,12.90
2023-03-05T11:33:14.735Z,12.10
2023-03-05T11:35:42.867Z,11.70
2023-03-05T11:38:27.245Z,11.80
2023-03-05T11:40:55.950Z,12.90
2023-03-05T11:43:24.970Z,12.60
2023-03-05T11:45:55.126Z,10.90
2023-03-05T11:48:27.964Z,11.40
2023-03-05T11:51:12.926Z,12.00
2023-03-05T11:53:39.135Z,9.70
2023-03-05T11:56:14.015Z,9.50
2023-03-05T11:58:49.404Z,11.60
2023-03-05T12:01:19.806Z,9.30
2023-03-05T12:03:46.918Z,10.80
2023-03-05T12:06:32.480Z,11.00
2023-03-05T12:09:03.050Z,11.10
2023-03-05T12:11:32.180Z,11.30
2023-03-05T12:14:05.933Z,11.70
2023-03-05T12:16:41.478Z,10.70
2023-03-05T12:19:27.795Z,9.80
2023-03-05T12:21:54.536Z,11.60
2023-03-05T12:24:25.397Z,13.40
2023-03-05T12:29:29.152Z,11.00
2023-03-05T12:31:56.160Z,10.00
2023-03-05T12:34:44.940Z,8.80
2023-03-05T12:37:18.329Z,10.00
2023-03-05T12:39:45.151Z,9.60
2023-03-05T12:42:29.456Z,9.20
2023-03-05T12:45:18.644Z,9.40
2023-03-05T12:47:56.522Z,9.70
2023-03-05T12:50:28.554Z,9.00
2023-03-05T12:52:58.955Z,9.80
2023-03-05T12:55:45.234Z,9.20
2023-03-05T12:58:16.992Z,11.20
2023-03-05T13:00:48.841Z,9.60
2023-03-05T13:03:32.256Z,10.80
2023-03-05T13:06:07.548Z,9.90
2023-03-05T13:08:35.438Z,9.30
2023-03-05T13:11:06.216Z,10.40
2023-03-05T13:13:41.021Z,8.50
2023-03-05T13:16:18.591Z,9.80
2023-03-05T13:18:47.626Z,9.90
2023-03-05T13:21:18.873Z,9.50
2023-03-05T13:23:57.223Z,9.10
2023-03-05T13:26:43.247Z,8.20
2023-03-05T13:29:13.086Z,7.90
2023-03-05T13:31:51.481Z,9.60
2023-03-05T13:34:46.710Z,9.00
2023-03-05T13:37:19.964Z,9.40
2023-03-05T13:39:52.528Z,8.50
2023-03-05T13:42:33.879Z,10.70
2023-03-05T13:45:03.482Z,8.50
2023-03-05T13:47:35.535Z,9.30
2023-03-05T13:50:05.562Z,10.10
2023-03-05T13:55:19.460Z,8.70
2023-03-05T13:57:52.238Z,11.20
2023-03-05T14:00:33.685Z,11.20
2023-03-05T14:03:08.547Z,11.00
2023-03-05T14:05:34.936Z,11.00
2023-03-05T14:08:01.703Z,12.00
2023-03-05T14:10:50.044Z,12.70
2023-03-05T14:13:28.811Z,10.30
2023-03-05T14:16:11.381Z,10.50
2023-03-05T14:18:39.298Z,10.40
2023-03-05T14:21:10.753Z,12.10
2023-03-05T14:23:44.510Z,12.60
2023-03-05T14:26:35.749Z,11.10
2023-03-05T14:29:10.780Z,11.80
2023-03-05T14:32:02.330Z,11.40
2023-03-05T14:34:52.065Z,11.50
2023-03-05T14:37:23.077Z,11.70
2023-03-05T14:39:52.405Z,23.50
2023-03-05T14:42:29.341Z,11.70
2023-03-05T14:44:57.935Z,11.40
2023-03-05T14:47:25.144Z,11.60
2023-03-05T14:49:51.770Z,11.00
2023-03-05T14:52:20.270Z,11.60
2023-03-05T14:54:46.883Z,13.10
2023-03-05T14:57:18.014Z,12.00
2023-03-05T14:59:44.178Z,11.80
2023-03-05T15:02:18.256Z,12.90
2023-03-05T15:04:47.796Z,12.10
2023-03-05T15:07:21.454Z,12.10
2023-03-05T15:09:47.934Z,11.10
2023-03-05T15:12:15.883Z,13.40
2023-03-05T15:14:42.920Z,12.00
2023-03-05T15:17:25.400Z,11.30
2023-03-05T15:22:19.293Z,12.20
2023-03-05T15:24:45.367Z,13.20
2023-03-05T15:27:12.053Z,13.40
2023-03-05T15:29:38.178Z,11.50
2023-03-05T15:32:04.988Z,12.30
2023-03-05T15:34:33.229Z,12.00
2023-03-05T15:37:00.333Z,11.70
2023-03-05T15:39:27.908Z,10.10
2023-03-05T15:41:55.098Z,10.00
2023-03-05T15:44:21.569Z,10.10
2023-03-05T15:46:47.838Z,11.10
2023-03-05T15:49:14.986Z,10.60
2023-03-05T15:51:41.601Z,10.70
2023-03-05T15:54:07.855Z,11.40
2023-03-05T15:56:36.604Z,10.30
2023-03-05T15:59:03.147Z,12.10
2023-03-05T16:01:29.345Z,10.50
2023-03-05T16:03:55.531Z,11.40
2023-03-05T16:06:24.158Z,13.60
2023-03-05T16:08:55.050Z,14.00
2023-03-05T16:11:21.633Z,13.10
2023-03-05T16:13:49.869Z,15.90
2023-03-05T16:16:16.433Z,17.00
2023-03-05T16:18:45.465Z,14.00
2023-03-05T16:21:13.204Z,11.70
2023-03-05T16:23:39.553Z,11.80
2023-03-05T16:26:07.928Z,11.00
2023-03-05T16:28:34.109Z,11.60
2023-03-05T16:31:00.375Z,11.50
2023-03-05T16:33:26.703Z,11.40
2023-03-05T16:36:17.872Z,7.50
2023-03-05T16:38:44.223Z,11.40
2023-03-05T16:41:13.986Z,11.10
2023-03-05T16:43:40.216Z,12.60
2023-03-05T16:46:10.125Z,11.00
2023-03-05T16:48:36.667Z,10.40
2023-03-05T16:51:04.513Z,11.10
2023-03-05T16:53:33.430Z,11.10
2023-03-05T16:56:05.896Z,12.50
2023-03-05T16:58:33.687Z,10.70
2023-03-05T17:01:00.547Z,11.70
2023-03-05T17:03:27.797Z,10.80
2023-03-05T17:05:57.291Z,11.20
2023-03-05T17:08:23.851Z,11.90
2023-03-05T17:10:50.320Z,12.80
2023-03-05T17:13:17.436Z,12.40
2023-03-05T17:18:14.532Z,13.10
2023-03-05T17:20:40.972Z,13.00
2023-03-05T17:23:07.368Z,18.70
2023-03-05T17:25:33.597Z,11.90
2023-03-05T17:27:59.804Z,11.70
2023-03-05T17:30:25.898Z,10.20
2023-03-05T17:32:53.328Z,10.20
2023-03-05T17:35:21.514Z,9.80
2023-03-05T17:37:48.884Z,11.10
2023-03-05T17:40:15.564Z,11.80
2023-03-05T17:42:41.798Z,9.90
2023-03-05T17:45:08.269Z,10.50
2023-03-05T17:47:34.533Z,11.20
2023-03-05T17:50:01.367Z,11.30
2023-03-05T17:52:27.542Z,10.00
2023-03-05T17:54:53.871Z,10.50
2023-03-05T17:57:20.867Z,10.90
2023-03-05T17:59:47.685Z,10.70
2023-03-05T18:02:16.122Z,7.70
2023-03-05T18:04:43.354Z,9.60
2023-03-05T18:07:10.296Z,12.50
2023-03-05T18:09:36.821Z,9.40
2023-03-05T18:12:03.059Z,9.90
2023-03-05T18:14:29.378Z,11.00
2023-03-05T18:16:57.511Z,9.30
2023-03-05T18:19:24.555Z,11.00
2023-03-05T18:21:51.405Z,9.80
2023-03-05T18:24:17.542Z,10.00
2023-03-05T18:26:43.689Z,10.60
2023-03-05T18:29:09.787Z,17.80
2023-03-05T18:31:35.918Z,13.00
2023-03-05T18:34:02.188Z,13.60
2023-03-05T18:36:28.290Z,11.70
2023-03-05T18:38:56.114Z,11.20
2023-03-05T18:41:27.490Z,12.60
2023-03-05T18:43:54.102Z,11.50
2023-03-05T18:46:20.468Z,11.60
2023-03-05T18:48:49.896Z,13.50
2023-03-05T18:51:18.653Z,13.90
2023-03-05T18:53:48.557Z,15.20
2023-03-05T18:56:14.715Z,14.40
2023-03-05T18:58:41.615Z,17.00
2023-03-05T19:01:08.623Z,15.20
2023-03-05T19:03:34.957Z,14.50
2023-03-05T19:06:01.031Z,12.50
2023-03-05T19:08:27.416Z,12.60
2023-03-05T19:10:53.628Z,10.50
2023-03-05T19:13:48.238Z,12.30
2023-03-05T19:16:17.526Z,11.00
2023-03-05T19:19:25.794Z,9.80
2023-03-05T19:21:58.956Z,9.90
2023-03-05T19:24:27.980Z,11.00
2023-03-05T19:26:57.489Z,9.40
2023-03-05T19:29:24.886Z,10.50
2023-03-05T19:31:52.302Z,13.80
2023-03-05T19:34:20.015Z,10.30
2023-03-05T19:36:47.062Z,10.70
2023-03-05T19:39:13.509Z,9.50
2023-03-05T19:41:39.736Z,9.60
2023-03-05T19:44:06.264Z,10.20
2023-03-05T19:46:32.565Z,9.60
2023-03-05T19:48:59.068Z,10.70
2023-03-05T19:51:25.848Z,9.50
2023-03-05T19:53:52.483Z,10.00
2023-03-05T19:56:19.093Z,10.10
2023-03-05T19:58:46.960Z,10.80
2023-03-05T20:01:16.076Z,12.20
2023-03-05T20:03:52.143Z,11.40
2023-03-05T20:06:18.867Z,11.00
2023-03-05T20:08:45.556Z,12.20
2023-03-05T20:11:13.824Z,15.40
2023-03-05T20:13:40.285Z,14.30
2023-03-05T20:16:20.908Z,12.50
2023-03-05T20:18:51.976Z,11.30
2023-03-05T20:21:25.870Z,11.50
2023-03-05T20:23:55.875Z,10.60
2023-03-05T20:26:25.350Z,11.60
2023-03-05T20:28:53.007Z,10.60
2023-03-05T20:31:21.242Z,11.60
2023-03-05T20:33:50.780Z,11.30
2023-03-05T20:36:17.513Z,10.40
2023-03-05T20:38:45.084Z,11.10
2023-03-05T20:41:14.662Z,12.00
2023-03-05T20:43:45.860Z,11.70
2023-03-05T20:46:31.324Z,11.80
2023-03-05T20:49:00.217Z,10.00
2023-03-05T20:51:31.108Z,9.80
2023-03-05T20:54:03.425Z,20.80
2023-03-05T20:56:32.081Z,12.00
2023-03-05T20:59:03.956Z,17.10
2023-03-05T21:01:32.178Z,12.90
2023-03-05T21:03:59.175Z,10.20
2023-03-05T21:06:27.372Z,12.00
2023-03-05T21:08:53.558Z,14.80
2023-03-05T21:11:19.770Z,14.20
2023-03-05T21:13:46.116Z,12.50
2023-03-05T21:16:18.250Z,12.80
2023-03-05T21:18:47.443Z,11.50
2023-03-05T21:21:13.770Z,11.20
2023-03-05T21:23:39.853Z,12.30
2023-03-05T21:26:06.563Z,12.40
2023-03-05T21:28:32.893Z,12.50
2023-03-05T21:31:06.441Z,10.90
2023-03-05T21:33:32.803Z,11.00
2023-03-05T21:35:58.960Z,10.80
2023-03-05T21:38:29.118Z,11.50
2023-03-05T21:40:57.498Z,9.90
2023-03-05T21:43:24.812Z,10.80
2023-03-05T21:45:52.993Z,11.00
2023-03-05T21:48:20.002Z,13.60
2023-03-05T21:50:46.923Z,13.60
2023-03-05T21:53:14.570Z,15.60
2023-03-05T21:56:21.426Z,11.50
2023-03-05T21:58:48.101Z,9.90
2023-03-05T22:01:17.734Z,10.50
2023-03-05T22:03:44.001Z,9.60
2023-03-05T22:06:13.808Z,10.90
2023-03-05T22:08:40.852Z,11.30
2023-03-05T22:11:09.009Z,9.90
2023-03-05T22:13:39.278Z,9.50
2023-03-05T22:16:08.515Z,8.80
2023-03-05T22:18:35.761Z,8.90
2023-03-05T22:21:02.864Z,8.60
2023-03-05T22:23:33.362Z,10.10
2023-03-05T22:26:05.041Z,9.60
2023-03-05T22:28:33.338Z,9.80
2023-03-05T22:30:59.979Z,8.60
2023-03-05T22:33:26.913Z,9.40
2023-03-05T22:35:53.119Z,9.60
2023-03-05T22:38:19.796Z,9.80
2023-03-05T22:40:47.593Z,9.20
2023-03-05T22:43:14.950Z,9.10
2023-03-05T22:45:41.680Z,9.00
2023-03-05T22:48:10.892Z,8.10
2023-03-05T22:50:38.533Z,10.40
2023-03-05T22:53:04.653Z,8.30
2023-03-05T22:55:30.687Z,8.10
2023-03-05T22:57:56.802Z,10.50
2023-03-05T23:00:23.178Z,8.90
2023-03-05T23:02:50.910Z,9.10
2023-03-05T23:05:18.110Z,10.70
2023-03-05T23:07:45.307Z,9.20
2023-03-05T23:10:14.154Z,9.90
2023-03-05T23:12:45.409Z,12.10
2023-03-05T23:15:14.562Z,13.90
2023-03-05T23:17:40.899Z,11.70
2023-03-05T23:20:10.263Z,9.60
2023-03-05T23:22:38.466Z,10.70
2023-03-05T23:25:05.327Z,10.50
2023-03-05T23:27:31.466Z,9.60
2023-03-05T23:30:17.067Z,8.50
2023-03-05T23:32:48.624Z,8.80
2023-03-05T23:35:18.757Z,9.70
2023-03-05T23:37:45.113Z,8.40
2023-03-05T23:40:23.532Z,8.90
2023-03-05T23:42:49.664Z,9.00
2023-03-05T23:45:17.694Z,10.30
2023-03-05T23:47:44.341Z,9.60
2023-03-05T23:50:16.594Z,9.10
2023-03-05T23:52:43.960Z,10.60
2023-03-05T23:55:15.881Z,10.90
2023-03-05T23:57:42.613Z,8.50
